sensor_id;sensor_type;location;lat;lon;timestamp;temperature;humidity
68556;HTU21D;55544;51.032;5.866;2024-02-28T00:02:14;4.00;82.01
68556;HTU21D;55544;51.032;5.866;2024-02-28T00:04:40;3.98;82.25
68556;HTU21D;55544;51.032;5.866;2024-02-28T00:07:07;4.00;82.31
68556;HTU21D;55544;51.032;5.866;2024-02-28T00:09:33;4.04;81.67
68556;HTU21D;55544;51.032;5.866;2024-02-28T00:11:58;4.01;81.26
68556;HTU21D;55544;51.032;5.866;2024-02-28T00:14:24;3.98;81.19
68556;HTU21D;55544;51.032;5.866;2024-02-28T00:16:50;3.94;80.47
68556;HTU21D;55544;51.032;5.866;2024-02-28T00:19:16;3.80;80.49
68556;HTU21D;55544;51.032;5.866;2024-02-28T00:21:44;3.73;80.85
68556;HTU21D;55544;51.032;5.866;2024-02-28T00:24:09;3.71;81.08
68556;HTU21D;55544;51.032;5.866;2024-02-28T00:26:35;3.73;80.93
68556;HTU21D;55544;51.032;5.866;2024-02-28T00:29:01;3.75;80.84
68556;HTU21D;55544;51.032;5.866;2024-02-28T00:31:27;3.72;81.00
68556;HTU21D;55544;51.032;5.866;2024-02-28T00:33:53;3.71;81.94
68556;HTU21D;55544;51.032;5.866;2024-02-28T00:36:19;3.76;82.10
68556;HTU21D;55544;51.032;5.866;2024-02-28T00:38:44;3.83;82.00
68556;HTU21D;55544;51.032;5.866;2024-02-28T00:41:10;3.86;82.31
68556;HTU21D;55544;51.032;5.866;2024-02-28T00:43:36;3.93;82.27
68556;HTU21D;55544;51.032;5.866;2024-02-28T00:46:01;3.98;81.88
68556;HTU21D;55544;51.032;5.866;2024-02-28T00:48:29;3.98;81.38
68556;HTU21D;55544;51.032;5.866;2024-02-28T00:50:54;4.02;80.93
68556;HTU21D;55544;51.032;5.866;2024-02-28T00:53:21;3.99;80.91
68556;HTU21D;55544;51.032;5.866;2024-02-28T00:55:46;3.99;80.34
68556;HTU21D;55544;51.032;5.866;2024-02-28T00:58:12;3.95;80.65
68556;HTU21D;55544;51.032;5.866;2024-02-28T01:00:38;3.86;80.82
68556;HTU21D;55544;51.032;5.866;2024-02-28T01:03:03;3.77;81.01
68556;HTU21D;55544;51.032;5.866;2024-02-28T01:05:30;3.76;80.74
68556;HTU21D;55544;51.032;5.866;2024-02-28T01:07:55;3.73;80.33
68556;HTU21D;55544;51.032;5.866;2024-02-28T01:10:22;3.76;80.33
68556;HTU21D;55544;51.032;5.866;2024-02-28T01:12:48;3.72;80.50
68556;HTU21D;55544;51.032;5.866;2024-02-28T01:15:13;3.70;80.61
68556;HTU21D;55544;51.032;5.866;2024-02-28T01:17:39;3.74;80.83
68556;HTU21D;55544;51.032;5.866;2024-02-28T01:20:06;3.65;81.52
68556;HTU21D;55544;51.032;5.866;2024-02-28T01:22:34;3.64;81.78
68556;HTU21D;55544;51.032;5.866;2024-02-28T01:25:00;3.61;81.86
68556;HTU21D;55544;51.032;5.866;2024-02-28T01:27:25;3.65;81.94
68556;HTU21D;55544;51.032;5.866;2024-02-28T01:29:51;3.63;82.20
68556;HTU21D;55544;51.032;5.866;2024-02-28T01:32:19;3.59;82.46
68556;HTU21D;55544;51.032;5.866;2024-02-28T01:34:45;3.58;82.88
68556;HTU21D;55544;51.032;5.866;2024-02-28T01:37:12;3.60;83.56
68556;HTU21D;55544;51.032;5.866;2024-02-28T01:39:37;3.61;83.81
68556;HTU21D;55544;51.032;5.866;2024-02-28T01:42:03;3.55;84.54
68556;HTU21D;55544;51.032;5.866;2024-02-28T01:44:29;3.50;85.19
68556;HTU21D;55544;51.032;5.866;2024-02-28T01:46:55;3.49;85.71
68556;HTU21D;55544;51.032;5.866;2024-02-28T01:49:23;3.53;86.03
68556;HTU21D;55544;51.032;5.866;2024-02-28T01:51:49;3.57;86.28
68556;HTU21D;55544;51.032;5.866;2024-02-28T01:54:17;3.60;86.69
68556;HTU21D;55544;51.032;5.866;2024-02-28T01:56:44;3.67;86.64
68556;HTU21D;55544;51.032;5.866;2024-02-28T01:59:11;3.75;86.68
68556;HTU21D;55544;51.032;5.866;2024-02-28T02:01:37;3.83;86.42
68556;HTU21D;55544;51.032;5.866;2024-02-28T02:04:06;3.90;86.03
68556;HTU21D;55544;51.032;5.866;2024-02-28T02:06:34;3.91;86.17
68556;HTU21D;55544;51.032;5.866;2024-02-28T02:09:02;3.93;86.11
68556;HTU21D;55544;51.032;5.866;2024-02-28T02:11:28;3.93;85.91
68556;HTU21D;55544;51.032;5.866;2024-02-28T02:13:54;4.00;86.13
68556;HTU21D;55544;51.032;5.866;2024-02-28T02:16:20;3.98;85.86
68556;HTU21D;55544;51.032;5.866;2024-02-28T02:18:52;3.99;86.12
68556;HTU21D;55544;51.032;5.866;2024-02-28T02:21:19;3.99;86.06
68556;HTU21D;55544;51.032;5.866;2024-02-28T02:23:45;3.98;86.31
68556;HTU21D;55544;51.032;5.866;2024-02-28T02:26:11;3.97;86.69
68556;HTU21D;55544;51.032;5.866;2024-02-28T02:28:36;3.95;86.72
68556;HTU21D;55544;51.032;5.866;2024-02-28T02:31:02;3.98;87.28
68556;HTU21D;55544;51.032;5.866;2024-02-28T02:33:28;3.98;87.72
68556;HTU21D;55544;51.032;5.866;2024-02-28T02:35:54;4.03;87.94
68556;HTU21D;55544;51.032;5.866;2024-02-28T02:38:19;4.05;88.07
68556;HTU21D;55544;51.032;5.866;2024-02-28T02:40:52;4.09;88.45
68556;HTU21D;55544;51.032;5.866;2024-02-28T02:43:18;4.12;88.67
68556;HTU21D;55544;51.032;5.866;2024-02-28T02:45:44;4.15;88.99
68556;HTU21D;55544;51.032;5.866;2024-02-28T02:48:10;4.17;88.73
68556;HTU21D;55544;51.032;5.866;2024-02-28T02:50:36;4.13;88.91
68556;HTU21D;55544;51.032;5.866;2024-02-28T02:53:02;4.10;88.90
68556;HTU21D;55544;51.032;5.866;2024-02-28T02:55:29;4.07;88.83
68556;HTU21D;55544;51.032;5.866;2024-02-28T02:57:54;4.04;89.17
68556;HTU21D;55544;51.032;5.866;2024-02-28T03:00:21;4.05;89.21
68556;HTU21D;55544;51.032;5.866;2024-02-28T03:02:47;4.00;88.81
68556;HTU21D;55544;51.032;5.866;2024-02-28T03:05:13;3.90;88.88
68556;HTU21D;55544;51.032;5.866;2024-02-28T03:07:39;3.85;88.68
68556;HTU21D;55544;51.032;5.866;2024-02-28T03:10:05;3.75;88.96
68556;HTU21D;55544;51.032;5.866;2024-02-28T03:12:31;3.70;89.22
68556;HTU21D;55544;51.032;5.866;2024-02-28T03:14:57;3.62;89.86
68556;HTU21D;55544;51.032;5.866;2024-02-28T03:17:23;3.54;89.99
68556;HTU21D;55544;51.032;5.866;2024-02-28T03:19:48;3.54;90.02
68556;HTU21D;55544;51.032;5.866;2024-02-28T03:22:14;3.49;90.08
68556;HTU21D;55544;51.032;5.866;2024-02-28T03:24:41;3.48;90.54
68556;HTU21D;55544;51.032;5.866;2024-02-28T03:27:07;3.47;90.61
68556;HTU21D;55544;51.032;5.866;2024-02-28T03:29:33;3.46;90.74
68556;HTU21D;55544;51.032;5.866;2024-02-28T03:31:59;3.45;90.80
68556;HTU21D;55544;51.032;5.866;2024-02-28T03:34:25;3.46;90.60
68556;HTU21D;55544;51.032;5.866;2024-02-28T03:36:51;3.52;90.84
68556;HTU21D;55544;51.032;5.866;2024-02-28T03:39:16;3.53;90.84
68556;HTU21D;55544;51.032;5.866;2024-02-28T03:41:42;3.50;90.95
68556;HTU21D;55544;51.032;5.866;2024-02-28T03:44:08;3.52;91.12
68556;HTU21D;55544;51.032;5.866;2024-02-28T03:46:34;3.54;91.03
68556;HTU21D;55544;51.032;5.866;2024-02-28T03:48:59;3.58;90.96
68556;HTU21D;55544;51.032;5.866;2024-02-28T03:51:25;3.60;91.18
68556;HTU21D;55544;51.032;5.866;2024-02-28T03:53:51;3.62;91.42
68556;HTU21D;55544;51.032;5.866;2024-02-28T03:56:24;3.68;91.53
68556;HTU21D;55544;51.032;5.866;2024-02-28T03:58:56;3.68;91.30
68556;HTU21D;55544;51.032;5.866;2024-02-28T04:01:21;3.73;91.22
68556;HTU21D;55544;51.032;5.866;2024-02-28T04:03:47;3.70;91.53
68556;HTU21D;55544;51.032;5.866;2024-02-28T04:06:13;3.73;91.37
68556;HTU21D;55544;51.032;5.866;2024-02-28T04:08:41;3.77;91.15
68556;HTU21D;55544;51.032;5.866;2024-02-28T04:11:07;3.73;91.37
68556;HTU21D;55544;51.032;5.866;2024-02-28T04:13:33;3.76;91.24
68556;HTU21D;55544;51.032;5.866;2024-02-28T04:15:58;3.77;91.51
68556;HTU21D;55544;51.032;5.866;2024-02-28T04:18:24;3.74;91.91
68556;HTU21D;55544;51.032;5.866;2024-02-28T04:20:50;3.73;92.40
68556;HTU21D;55544;51.032;5.866;2024-02-28T04:23:15;3.77;91.98
68556;HTU21D;55544;51.032;5.866;2024-02-28T04:25:42;3.76;92.27
68556;HTU21D;55544;51.032;5.866;2024-02-28T04:28:08;3.79;92.15
68556;HTU21D;55544;51.032;5.866;2024-02-28T04:30:36;3.83;92.34
68556;HTU21D;55544;51.032;5.866;2024-02-28T04:33:02;3.82;92.45
68556;HTU21D;55544;51.032;5.866;2024-02-28T04:35:28;3.85;92.85
68556;HTU21D;55544;51.032;5.866;2024-02-28T04:37:53;3.87;92.71
68556;HTU21D;55544;51.032;5.866;2024-02-28T04:40:19;3.89;92.68
68556;HTU21D;55544;51.032;5.866;2024-02-28T04:42:45;3.88;92.77
68556;HTU21D;55544;51.032;5.866;2024-02-28T04:45:10;3.90;92.75
68556;HTU21D;55544;51.032;5.866;2024-02-28T04:47:37;3.91;92.62
68556;HTU21D;55544;51.032;5.866;2024-02-28T04:50:04;3.89;92.72
68556;HTU21D;55544;51.032;5.866;2024-02-28T04:52:33;3.90;93.01
68556;HTU21D;55544;51.032;5.866;2024-02-28T04:54:59;3.95;92.85
68556;HTU21D;55544;51.032;5.866;2024-02-28T04:57:25;3.94;92.66
68556;HTU21D;55544;51.032;5.866;2024-02-28T04:59:51;3.97;92.37
68556;HTU21D;55544;51.032;5.866;2024-02-28T05:02:17;3.91;92.52
68556;HTU21D;55544;51.032;5.866;2024-02-28T05:04:43;3.89;92.18
68556;HTU21D;55544;51.032;5.866;2024-02-28T05:07:09;3.91;92.01
68556;HTU21D;55544;51.032;5.866;2024-02-28T05:09:35;3.89;92.53
68556;HTU21D;55544;51.032;5.866;2024-02-28T05:12:01;3.86;92.02
68556;HTU21D;55544;51.032;5.866;2024-02-28T05:14:27;3.83;92.63
68556;HTU21D;55544;51.032;5.866;2024-02-28T05:16:53;3.79;92.92
68556;HTU21D;55544;51.032;5.866;2024-02-28T05:19:19;3.84;92.64
68556;HTU21D;55544;51.032;5.866;2024-02-28T05:21:45;3.84;92.58
68556;HTU21D;55544;51.032;5.866;2024-02-28T05:24:11;3.87;92.67
68556;HTU21D;55544;51.032;5.866;2024-02-28T05:26:38;3.85;92.52
68556;HTU21D;55544;51.032;5.866;2024-02-28T05:29:05;3.89;92.63
68556;HTU21D;55544;51.032;5.866;2024-02-28T05:31:32;3.89;92.65
68556;HTU21D;55544;51.032;5.866;2024-02-28T05:33:59;3.90;92.60
68556;HTU21D;55544;51.032;5.866;2024-02-28T05:36:30;3.88;92.92
68556;HTU21D;55544;51.032;5.866;2024-02-28T05:38:57;3.87;93.17
68556;HTU21D;55544;51.032;5.866;2024-02-28T05:41:24;3.85;92.75
68556;HTU21D;55544;51.032;5.866;2024-02-28T05:43:50;3.82;92.70
68556;HTU21D;55544;51.032;5.866;2024-02-28T05:46:16;3.78;92.85
68556;HTU21D;55544;51.032;5.866;2024-02-28T05:48:43;3.79;92.93
68556;HTU21D;55544;51.032;5.866;2024-02-28T05:51:10;3.75;92.54
68556;HTU21D;55544;51.032;5.866;2024-02-28T05:53:37;3.73;92.58
68556;HTU21D;55544;51.032;5.866;2024-02-28T05:56:07;3.73;92.95
68556;HTU21D;55544;51.032;5.866;2024-02-28T05:58:41;3.76;92.84
68556;HTU21D;55544;51.032;5.866;2024-02-28T06:01:07;3.75;92.50
68556;HTU21D;55544;51.032;5.866;2024-02-28T06:03:33;3.77;92.69
68556;HTU21D;55544;51.032;5.866;2024-02-28T06:05:59;3.76;92.79
68556;HTU21D;55544;51.032;5.866;2024-02-28T06:08:25;3.77;92.92
68556;HTU21D;55544;51.032;5.866;2024-02-28T06:10:51;3.83;93.04
68556;HTU21D;55544;51.032;5.866;2024-02-28T06:13:18;3.77;93.20
68556;HTU21D;55544;51.032;5.866;2024-02-28T06:15:44;3.84;93.01
68556;HTU21D;55544;51.032;5.866;2024-02-28T06:18:09;3.84;93.01
68556;HTU21D;55544;51.032;5.866;2024-02-28T06:20:35;3.86;92.85
68556;HTU21D;55544;51.032;5.866;2024-02-28T06:23:02;3.88;93.24
68556;HTU21D;55544;51.032;5.866;2024-02-28T06:25:28;3.94;92.74
68556;HTU21D;55544;51.032;5.866;2024-02-28T06:27:54;3.92;92.72
68556;HTU21D;55544;51.032;5.866;2024-02-28T06:30:20;3.95;92.35
68556;HTU21D;55544;51.032;5.866;2024-02-28T06:32:46;3.85;92.60
68556;HTU21D;55544;51.032;5.866;2024-02-28T06:35:11;3.88;92.95
68556;HTU21D;55544;51.032;5.866;2024-02-28T06:37:37;3.87;93.24
68556;HTU21D;55544;51.032;5.866;2024-02-28T06:40:03;3.88;93.27
68556;HTU21D;55544;51.032;5.866;2024-02-28T06:42:35;3.93;93.33
68556;HTU21D;55544;51.032;5.866;2024-02-28T06:45:02;3.99;93.48
68556;HTU21D;55544;51.032;5.866;2024-02-28T06:47:30;4.02;93.29
68556;HTU21D;55544;51.032;5.866;2024-02-28T06:49:56;4.03;93.31
68556;HTU21D;55544;51.032;5.866;2024-02-28T06:52:21;4.03;93.17
68556;HTU21D;55544;51.032;5.866;2024-02-28T06:54:47;4.05;92.92
68556;HTU21D;55544;51.032;5.866;2024-02-28T06:57:13;4.02;93.16
68556;HTU21D;55544;51.032;5.866;2024-02-28T06:59:39;4.00;93.85
68556;HTU21D;55544;51.032;5.866;2024-02-28T07:02:05;4.08;93.82
68556;HTU21D;55544;51.032;5.866;2024-02-28T07:04:30;4.15;93.11
68556;HTU21D;55544;51.032;5.866;2024-02-28T07:06:56;4.07;93.57
68556;HTU21D;55544;51.032;5.866;2024-02-28T07:09:22;4.13;93.40
68556;HTU21D;55544;51.032;5.866;2024-02-28T07:11:51;4.19;93.72
68556;HTU21D;55544;51.032;5.866;2024-02-28T07:14:17;4.17;93.96
68556;HTU21D;55544;51.032;5.866;2024-02-28T07:16:42;4.20;94.13
68556;HTU21D;55544;51.032;5.866;2024-02-28T07:19:09;4.24;94.04
68556;HTU21D;55544;51.032;5.866;2024-02-28T07:21:35;4.22;93.98
68556;HTU21D;55544;51.032;5.866;2024-02-28T07:24:02;4.27;93.99
68556;HTU21D;55544;51.032;5.866;2024-02-28T07:26:30;4.24;94.01
68556;HTU21D;55544;51.032;5.866;2024-02-28T07:28:56;4.31;94.33
68556;HTU21D;55544;51.032;5.866;2024-02-28T07:31:21;4.37;94.36
68556;HTU21D;55544;51.032;5.866;2024-02-28T07:33:47;4.46;93.87
68556;HTU21D;55544;51.032;5.866;2024-02-28T07:36:14;4.39;94.15
68556;HTU21D;55544;51.032;5.866;2024-02-28T07:38:43;4.34;94.38
68556;HTU21D;55544;51.032;5.866;2024-02-28T07:41:09;4.43;94.60
68556;HTU21D;55544;51.032;5.866;2024-02-28T07:43:35;4.47;94.64
68556;HTU21D;55544;51.032;5.866;2024-02-28T07:46:07;4.51;94.46
68556;HTU21D;55544;51.032;5.866;2024-02-28T07:48:34;4.60;94.21
68556;HTU21D;55544;51.032;5.866;2024-02-28T07:51:00;4.63;94.18
68556;HTU21D;55544;51.032;5.866;2024-02-28T07:53:26;4.68;93.98
68556;HTU21D;55544;51.032;5.866;2024-02-28T07:55:52;4.69;94.17
68556;HTU21D;55544;51.032;5.866;2024-02-28T07:58:18;4.71;94.03
68556;HTU21D;55544;51.032;5.866;2024-02-28T08:00:44;4.71;94.08
68556;HTU21D;55544;51.032;5.866;2024-02-28T08:03:10;4.71;94.47
68556;HTU21D;55544;51.032;5.866;2024-02-28T08:05:36;4.72;94.11
68556;HTU21D;55544;51.032;5.866;2024-02-28T08:08:08;4.76;94.22
68556;HTU21D;55544;51.032;5.866;2024-02-28T08:10:34;4.89;94.67
68556;HTU21D;55544;51.032;5.866;2024-02-28T08:13:01;4.96;94.05
68556;HTU21D;55544;51.032;5.866;2024-02-28T08:15:27;4.95;94.21
68556;HTU21D;55544;51.032;5.866;2024-02-28T08:17:53;5.08;94.12
68556;HTU21D;55544;51.032;5.866;2024-02-28T08:20:19;5.22;94.14
68556;HTU21D;55544;51.032;5.866;2024-02-28T08:22:45;5.23;94.17
68556;HTU21D;55544;51.032;5.866;2024-02-28T08:25:12;5.31;94.12
68556;HTU21D;55544;51.032;5.866;2024-02-28T08:27:38;5.36;93.57
68556;HTU21D;55544;51.032;5.866;2024-02-28T08:30:05;5.43;93.77
68556;HTU21D;55544;51.032;5.866;2024-02-28T08:32:33;5.57;93.75
68556;HTU21D;55544;51.032;5.866;2024-02-28T08:35:00;5.69;93.04
68556;HTU21D;55544;51.032;5.866;2024-02-28T08:37:26;5.67;93.01
68556;HTU21D;55544;51.032;5.866;2024-02-28T08:39:54;5.72;92.79
68556;HTU21D;55544;51.032;5.866;2024-02-28T08:42:26;5.76;93.05
68556;HTU21D;55544;51.032;5.866;2024-02-28T08:44:53;5.84;92.82
68556;HTU21D;55544;51.032;5.866;2024-02-28T08:47:26;5.87;92.79
68556;HTU21D;55544;51.032;5.866;2024-02-28T08:49:55;5.94;93.10
68556;HTU21D;55544;51.032;5.866;2024-02-28T08:52:21;5.92;92.83
68556;HTU21D;55544;51.032;5.866;2024-02-28T08:54:48;5.91;92.72
68556;HTU21D;55544;51.032;5.866;2024-02-28T08:57:14;5.89;92.95
68556;HTU21D;55544;51.032;5.866;2024-02-28T08:59:40;5.95;93.30
68556;HTU21D;55544;51.032;5.866;2024-02-28T09:02:07;5.94;92.34
68556;HTU21D;55544;51.032;5.866;2024-02-28T09:04:33;6.05;92.80
68556;HTU21D;55544;51.032;5.866;2024-02-28T09:06:59;6.06;92.90
68556;HTU21D;55544;51.032;5.866;2024-02-28T09:09:25;6.11;92.32
68556;HTU21D;55544;51.032;5.866;2024-02-28T09:11:50;6.10;92.25
68556;HTU21D;55544;51.032;5.866;2024-02-28T09:14:16;6.16;92.30
68556;HTU21D;55544;51.032;5.866;2024-02-28T09:16:42;6.19;92.32
68556;HTU21D;55544;51.032;5.866;2024-02-28T09:19:07;6.19;92.12
68556;HTU21D;55544;51.032;5.866;2024-02-28T09:21:33;6.26;91.60
68556;HTU21D;55544;51.032;5.866;2024-02-28T09:24:00;6.27;90.73
68556;HTU21D;55544;51.032;5.866;2024-02-28T09:26:27;6.23;91.03
68556;HTU21D;55544;51.032;5.866;2024-02-28T09:28:52;6.39;90.58
68556;HTU21D;55544;51.032;5.866;2024-02-28T09:31:18;6.48;90.82
68556;HTU21D;55544;51.032;5.866;2024-02-28T09:33:44;6.45;90.87
68556;HTU21D;55544;51.032;5.866;2024-02-28T09:36:10;6.55;91.05
68556;HTU21D;55544;51.032;5.866;2024-02-28T09:38:37;6.67;89.76
68556;HTU21D;55544;51.032;5.866;2024-02-28T09:41:04;6.68;89.93
68556;HTU21D;55544;51.032;5.866;2024-02-28T09:43:31;6.76;89.86
68556;HTU21D;55544;51.032;5.866;2024-02-28T09:46:03;6.93;89.46
68556;HTU21D;55544;51.032;5.866;2024-02-28T09:48:30;7.12;88.99
68556;HTU21D;55544;51.032;5.866;2024-02-28T09:51:00;7.16;87.26
68556;HTU21D;55544;51.032;5.866;2024-02-28T09:53:26;7.12;86.97
68556;HTU21D;55544;51.032;5.866;2024-02-28T09:55:53;7.19;87.99
68556;HTU21D;55544;51.032;5.866;2024-02-28T09:58:19;7.30;87.44
68556;HTU21D;55544;51.032;5.866;2024-02-28T10:00:48;7.38;86.65
68556;HTU21D;55544;51.032;5.866;2024-02-28T10:03:19;7.34;86.77
68556;HTU21D;55544;51.032;5.866;2024-02-28T10:05:46;7.39;85.95
68556;HTU21D;55544;51.032;5.866;2024-02-28T10:08:12;7.38;85.71
68556;HTU21D;55544;51.032;5.866;2024-02-28T10:10:47;7.45;85.51
68556;HTU21D;55544;51.032;5.866;2024-02-28T10:13:13;7.42;85.94
68556;HTU21D;55544;51.032;5.866;2024-02-28T10:15:39;7.45;85.55
68556;HTU21D;55544;51.032;5.866;2024-02-28T10:18:05;7.47;85.84
68556;HTU21D;55544;51.032;5.866;2024-02-28T10:20:31;7.53;85.39
68556;HTU21D;55544;51.032;5.866;2024-02-28T10:22:57;7.44;85.50
68556;HTU21D;55544;51.032;5.866;2024-02-28T10:25:22;7.48;85.63
68556;HTU21D;55544;51.032;5.866;2024-02-28T10:27:49;7.60;85.34
68556;HTU21D;55544;51.032;5.866;2024-02-28T10:30:15;7.68;85.09
68556;HTU21D;55544;51.032;5.866;2024-02-28T10:32:49;7.69;84.89
68556;HTU21D;55544;51.032;5.866;2024-02-28T10:35:17;7.76;84.24
68556;HTU21D;55544;51.032;5.866;2024-02-28T10:37:51;7.82;84.60
68556;HTU21D;55544;51.032;5.866;2024-02-28T10:40:17;8.01;84.24
68556;HTU21D;55544;51.032;5.866;2024-02-28T10:42:45;8.16;84.04
68556;HTU21D;55544;51.032;5.866;2024-02-28T10:45:12;8.24;83.52
68556;HTU21D;55544;51.032;5.866;2024-02-28T10:47:39;8.38;83.38
68556;HTU21D;55544;51.032;5.866;2024-02-28T10:50:05;8.46;82.49
68556;HTU21D;55544;51.032;5.866;2024-02-28T10:52:33;8.55;82.58
68556;HTU21D;55544;51.032;5.866;2024-02-28T10:55:02;8.67;81.72
68556;HTU21D;55544;51.032;5.866;2024-02-28T10:57:29;8.85;81.92
68556;HTU21D;55544;51.032;5.866;2024-02-28T10:59:56;9.01;81.49
68556;HTU21D;55544;51.032;5.866;2024-02-28T11:02:26;9.11;80.78
68556;HTU21D;55544;51.032;5.866;2024-02-28T11:04:52;9.24;81.17
68556;HTU21D;55544;51.032;5.866;2024-02-28T11:07:21;9.40;79.83
68556;HTU21D;55544;51.032;5.866;2024-02-28T11:09:47;9.36;78.87
68556;HTU21D;55544;51.032;5.866;2024-02-28T11:12:29;9.34;78.64
68556;HTU21D;55544;51.032;5.866;2024-02-28T11:14:59;9.38;78.41
68556;HTU21D;55544;51.032;5.866;2024-02-28T11:17:29;9.50;78.65
68556;HTU21D;55544;51.032;5.866;2024-02-28T11:19:57;9.52;78.14
68556;HTU21D;55544;51.032;5.866;2024-02-28T11:22:22;9.51;78.04
68556;HTU21D;55544;51.032;5.866;2024-02-28T11:24:49;9.61;77.60
68556;HTU21D;55544;51.032;5.866;2024-02-28T11:27:17;9.69;78.25
68556;HTU21D;55544;51.032;5.866;2024-02-28T11:29:43;9.84;77.95
68556;HTU21D;55544;51.032;5.866;2024-02-28T11:32:15;10.07;76.79
68556;HTU21D;55544;51.032;5.866;2024-02-28T11:34:41;10.09;76.75
68556;HTU21D;55544;51.032;5.866;2024-02-28T11:37:10;10.25;75.47
68556;HTU21D;55544;51.032;5.866;2024-02-28T11:39:36;10.35;74.94
68556;HTU21D;55544;51.032;5.866;2024-02-28T11:42:12;10.40;74.41
68556;HTU21D;55544;51.032;5.866;2024-02-28T11:44:41;10.44;73.93
68556;HTU21D;55544;51.032;5.866;2024-02-28T11:47:11;10.45;74.18
68556;HTU21D;55544;51.032;5.866;2024-02-28T11:49:39;10.60;73.50
68556;HTU21D;55544;51.032;5.866;2024-02-28T11:52:06;10.60;73.46
68556;HTU21D;55544;51.032;5.866;2024-02-28T11:54:31;10.64;73.08
68556;HTU21D;55544;51.032;5.866;2024-02-28T11:56:58;10.77;72.55
68556;HTU21D;55544;51.032;5.866;2024-02-28T11:59:23;10.78;72.50
68556;HTU21D;55544;51.032;5.866;2024-02-28T12:01:49;10.88;71.46
68556;HTU21D;55544;51.032;5.866;2024-02-28T12:04:17;11.01;71.39
68556;HTU21D;55544;51.032;5.866;2024-02-28T12:06:43;11.00;70.77
68556;HTU21D;55544;51.032;5.866;2024-02-28T12:09:11;11.02;69.76
68556;HTU21D;55544;51.032;5.866;2024-02-28T12:11:40;11.05;70.39
68556;HTU21D;55544;51.032;5.866;2024-02-28T12:14:09;11.10;70.41
68556;HTU21D;55544;51.032;5.866;2024-02-28T12:16:41;11.23;70.41
68556;HTU21D;55544;51.032;5.866;2024-02-28T12:19:11;11.31;68.78
68556;HTU21D;55544;51.032;5.866;2024-02-28T12:21:40;11.32;68.65
68556;HTU21D;55544;51.032;5.866;2024-02-28T12:24:10;11.36;68.42
68556;HTU21D;55544;51.032;5.866;2024-02-28T12:26:40;11.47;68.51
68556;HTU21D;55544;51.032;5.866;2024-02-28T12:29:06;11.60;68.07
68556;HTU21D;55544;51.032;5.866;2024-02-28T12:31:32;11.69;67.00
68556;HTU21D;55544;51.032;5.866;2024-02-28T12:33:58;11.63;66.96
68556;HTU21D;55544;51.032;5.866;2024-02-28T12:36:24;11.72;66.55
68556;HTU21D;55544;51.032;5.866;2024-02-28T12:38:50;11.74;66.84
68556;HTU21D;55544;51.032;5.866;2024-02-28T12:41:17;11.68;66.91
68556;HTU21D;55544;51.032;5.866;2024-02-28T12:43:43;11.76;66.94
68556;HTU21D;55544;51.032;5.866;2024-02-28T12:46:09;11.73;66.64
68556;HTU21D;55544;51.032;5.866;2024-02-28T12:48:39;11.74;66.18
68556;HTU21D;55544;51.032;5.866;2024-02-28T12:51:05;11.81;65.93
68556;HTU21D;55544;51.032;5.866;2024-02-28T12:53:32;11.71;65.58
68556;HTU21D;55544;51.032;5.866;2024-02-28T12:55:57;11.77;65.88
68556;HTU21D;55544;51.032;5.866;2024-02-28T12:58:23;11.73;66.56
68556;HTU21D;55544;51.032;5.866;2024-02-28T13:00:49;11.83;66.41
68556;HTU21D;55544;51.032;5.866;2024-02-28T13:03:15;11.90;65.88
68556;HTU21D;55544;51.032;5.866;2024-02-28T13:05:42;11.93;66.21
68556;HTU21D;55544;51.032;5.866;2024-02-28T13:08:07;11.90;66.05
68556;HTU21D;55544;51.032;5.866;2024-02-28T13:10:33;11.92;66.00
68556;HTU21D;55544;51.032;5.866;2024-02-28T13:13:07;11.87;65.31
68556;HTU21D;55544;51.032;5.866;2024-02-28T13:15:33;11.85;64.98
68556;HTU21D;55544;51.032;5.866;2024-02-28T13:17:59;11.75;64.85
68556;HTU21D;55544;51.032;5.866;2024-02-28T13:20:27;11.67;65.87
68556;HTU21D;55544;51.032;5.866;2024-02-28T13:22:53;11.63;65.68
68556;HTU21D;55544;51.032;5.866;2024-02-28T13:25:19;11.58;65.95
68556;HTU21D;55544;51.032;5.866;2024-02-28T13:27:46;11.59;66.51
68556;HTU21D;55544;51.032;5.866;2024-02-28T13:30:12;11.59;66.64
68556;HTU21D;55544;51.032;5.866;2024-02-28T13:32:39;11.62;66.43
68556;HTU21D;55544;51.032;5.866;2024-02-28T13:35:05;11.64;66.49
68556;HTU21D;55544;51.032;5.866;2024-02-28T13:37:31;11.68;67.09
68556;HTU21D;55544;51.032;5.866;2024-02-28T13:39:58;11.72;66.69
68556;HTU21D;55544;51.032;5.866;2024-02-28T13:42:24;11.74;65.82
68556;HTU21D;55544;51.032;5.866;2024-02-28T13:44:50;11.87;66.24
68556;HTU21D;55544;51.032;5.866;2024-02-28T13:47:16;11.97;66.39
68556;HTU21D;55544;51.032;5.866;2024-02-28T13:49:42;12.10;66.04
68556;HTU21D;55544;51.032;5.866;2024-02-28T13:52:08;12.16;65.87
68556;HTU21D;55544;51.032;5.866;2024-02-28T13:54:34;12.28;66.07
68556;HTU21D;55544;51.032;5.866;2024-02-28T13:57:00;12.38;65.46
68556;HTU21D;55544;51.032;5.866;2024-02-28T13:59:27;12.37;65.71
68556;HTU21D;55544;51.032;5.866;2024-02-28T14:01:53;12.42;65.33
68556;HTU21D;55544;51.032;5.866;2024-02-28T14:04:19;12.30;65.21
68556;HTU21D;55544;51.032;5.866;2024-02-28T14:06:45;12.27;65.01
68556;HTU21D;55544;51.032;5.866;2024-02-28T14:09:11;12.21;65.61
68556;HTU21D;55544;51.032;5.866;2024-02-28T14:11:37;12.19;66.11
68556;HTU21D;55544;51.032;5.866;2024-02-28T14:14:04;12.15;66.94
68556;HTU21D;55544;51.032;5.866;2024-02-28T14:16:30;12.14;67.13
68556;HTU21D;55544;51.032;5.866;2024-02-28T14:18:59;12.14;68.01
68556;HTU21D;55544;51.032;5.866;2024-02-28T14:21:25;12.19;67.27
68556;HTU21D;55544;51.032;5.866;2024-02-28T14:23:51;12.15;67.43
68556;HTU21D;55544;51.032;5.866;2024-02-28T14:26:17;12.12;67.10
68556;HTU21D;55544;51.032;5.866;2024-02-28T14:28:43;12.06;67.68
68556;HTU21D;55544;51.032;5.866;2024-02-28T14:31:09;12.10;68.66
68556;HTU21D;55544;51.032;5.866;2024-02-28T14:33:35;12.08;68.31
68556;HTU21D;55544;51.032;5.866;2024-02-28T14:36:02;12.10;68.02
68556;HTU21D;55544;51.032;5.866;2024-02-28T14:38:31;12.08;68.23
68556;HTU21D;55544;51.032;5.866;2024-02-28T14:40:57;12.01;68.59
68556;HTU21D;55544;51.032;5.866;2024-02-28T14:43:23;12.04;68.39
68556;HTU21D;55544;51.032;5.866;2024-02-28T14:45:48;11.97;68.26
68556;HTU21D;55544;51.032;5.866;2024-02-28T14:48:14;11.94;68.66
68556;HTU21D;55544;51.032;5.866;2024-02-28T14:50:40;12.01;68.70
68556;HTU21D;55544;51.032;5.866;2024-02-28T14:53:07;11.96;68.94
68556;HTU21D;55544;51.032;5.866;2024-02-28T14:55:34;11.93;68.65
68556;HTU21D;55544;51.032;5.866;2024-02-28T14:58:00;12.00;69.16
68556;HTU21D;55544;51.032;5.866;2024-02-28T15:00:27;11.97;68.79
68556;HTU21D;55544;51.032;5.866;2024-02-28T15:02:54;11.93;69.18
68556;HTU21D;55544;51.032;5.866;2024-02-28T15:05:20;11.98;69.13
68556;HTU21D;55544;51.032;5.866;2024-02-28T15:07:46;11.99;69.45
68556;HTU21D;55544;51.032;5.866;2024-02-28T15:10:12;12.04;69.11
68556;HTU21D;55544;51.032;5.866;2024-02-28T15:12:39;12.03;69.81
68556;HTU21D;55544;51.032;5.866;2024-02-28T15:15:06;12.03;70.10
68556;HTU21D;55544;51.032;5.866;2024-02-28T15:17:33;12.05;69.94
68556;HTU21D;55544;51.032;5.866;2024-02-28T15:19:59;11.94;69.94
68556;HTU21D;55544;51.032;5.866;2024-02-28T15:22:28;11.94;70.32
68556;HTU21D;55544;51.032;5.866;2024-02-28T15:24:55;11.96;70.19